createdAt,value
2022-11-22T00:00:39.525Z,14.65
2022-11-22T00:03:06.889Z,14.62
2022-11-22T00:05:34.058Z,14.63
2022-11-22T00:08:01.002Z,14.61
2022-11-22T00:10:27.895Z,14.58
2022-11-22T00:12:55.107Z,14.55
2022-11-22T00:15:21.989Z,14.53
2022-11-22T00:17:48.998Z,14.51
2022-11-22T00:20:16.064Z,14.48
2022-11-22T00:22:44.693Z,14.45
2022-11-22T00:25:12.145Z,14.42
2022-11-22T00:27:39.064Z,14.41
2022-11-22T00:30:06.782Z,14.41
2022-11-22T00:32:34.086Z,14.40
2022-11-22T00:35:01.043Z,14.38
2022-11-22T00:37:27.936Z,14.32
2022-11-22T00:39:54.816Z,14.32
2022-11-22T00:42:21.716Z,14.31
2022-11-22T00:44:48.653Z,14.26
2022-11-22T00:47:15.467Z,14.30
2022-11-22T00:49:42.366Z,14.26
2022-11-22T00:52:09.170Z,14.25
2022-11-22T00:54:36.057Z,14.24
2022-11-22T00:57:03.278Z,14.23
2022-11-22T00:59:30.538Z,14.22
2022-11-22T01:01:57.717Z,14.18
2022-11-22T01:04:24.614Z,14.17
2022-11-22T01:06:51.529Z,14.19
2022-11-22T01:09:23.668Z,14.14
2022-11-22T01:11:50.962Z,14.15
2022-11-22T01:14:18.089Z,14.12
2022-11-22T01:16:45.187Z,14.11
2022-11-22T01:19:12.211Z,14.09
2022-11-22T01:21:39.439Z,14.07
2022-11-22T01:24:06.904Z,14.05
2022-11-22T01:26:34.402Z,14.06
2022-11-22T01:29:01.321Z,14.04
2022-11-22T01:31:30.249Z,14.03
2022-11-22T01:33:57.874Z,14.02
2022-11-22T01:36:24.979Z,14.00
2022-11-22T01:38:52.323Z,14.00
2022-11-22T01:41:19.158Z,14.01
2022-11-22T01:43:46.041Z,13.93
2022-11-22T01:46:28.284Z,13.95
2022-11-22T01:49:04.802Z,13.95
2022-11-22T01:51:53.891Z,13.90
2022-11-22T01:54:25.760Z,13.91
2022-11-22T01:56:57.129Z,13.88
2022-11-22T01:59:30.137Z,13.90
2022-11-22T02:01:57.636Z,13.88
2022-11-22T02:04:26.870Z,13.91
2022-11-22T02:07:29.703Z,13.88
2022-11-22T02:09:56.550Z,13.87
2022-11-22T02:12:28.895Z,13.87
2022-11-22T02:14:56.663Z,13.83
2022-11-22T02:17:26.820Z,13.86
2022-11-22T02:19:55.228Z,13.84
2022-11-22T02:22:40.182Z,13.83
2022-11-22T02:25:16.437Z,13.81
2022-11-22T02:27:43.573Z,13.79
2022-11-22T02:30:11.112Z,13.80
2022-11-22T02:32:38.109Z,13.78
2022-11-22T02:35:18.840Z,13.79
2022-11-22T02:37:47.349Z,13.78
2022-11-22T02:40:16.120Z,13.76
2022-11-22T02:42:47.964Z,13.76
2022-11-22T02:45:14.964Z,13.74
2022-11-22T02:47:42.069Z,13.76
2022-11-22T02:50:09.546Z,13.74
2022-11-22T02:52:36.402Z,13.75
2022-11-22T02:55:03.448Z,13.73
2022-11-22T02:57:30.275Z,13.73
2022-11-22T02:59:57.150Z,13.73
2022-11-22T03:02:23.976Z,13.73
2022-11-22T03:04:50.800Z,13.72
2022-11-22T03:07:18.498Z,13.70
2022-11-22T03:09:45.423Z,13.71
2022-11-22T03:12:12.300Z,13.67
2022-11-22T03:14:39.137Z,13.70
2022-11-22T03:17:05.945Z,13.69
2022-11-22T03:19:32.967Z,13.67
2022-11-22T03:21:59.962Z,13.68
2022-11-22T03:24:26.822Z,13.67
2022-11-22T03:26:53.695Z,13.65
2022-11-22T03:29:20.583Z,13.66
2022-11-22T03:31:47.449Z,13.65
2022-11-22T03:34:14.815Z,13.66
2022-11-22T03:36:41.890Z,13.67
2022-11-22T03:39:08.853Z,13.66
2022-11-22T03:41:35.720Z,13.66
2022-11-22T03:44:02.676Z,13.65
2022-11-22T03:46:29.564Z,13.65
2022-11-22T03:48:56.446Z,13.66
2022-11-22T03:51:23.363Z,13.65
2022-11-22T03:53:50.214Z,13.63
2022-11-22T03:56:17.161Z,13.60
2022-11-22T03:58:44.080Z,13.60
2022-11-22T04:01:16.358Z,13.60
2022-11-22T04:03:43.756Z,13.61
2022-11-22T04:06:10.619Z,13.60
2022-11-22T04:08:37.574Z,13.59
2022-11-22T04:11:04.440Z,13.59
2022-11-22T04:13:49.831Z,13.59
2022-11-22T04:16:16.672Z,13.58
2022-11-22T04:18:43.494Z,13.55
2022-11-22T04:21:28.764Z,13.55
2022-11-22T04:24:14.454Z,13.55
2022-11-22T04:26:41.252Z,13.57
2022-11-22T04:29:10.358Z,13.57
2022-11-22T04:31:56.153Z,13.55
2022-11-22T04:34:23.054Z,13.55
2022-11-22T04:36:49.903Z,13.56
2022-11-22T04:39:16.724Z,13.54
2022-11-22T04:41:43.531Z,13.56
2022-11-22T04:44:29.834Z,13.57
2022-11-22T04:46:56.719Z,13.55
2022-11-22T04:49:23.562Z,13.52
2022-11-22T04:52:08.991Z,13.52
2022-11-22T04:54:35.819Z,13.53
2022-11-22T04:57:02.898Z,13.55
2022-11-22T04:59:30.038Z,13.54
2022-11-22T05:01:57.023Z,13.55
2022-11-22T05:04:23.803Z,13.53
2022-11-22T05:06:51.703Z,13.54
2022-11-22T05:09:18.689Z,13.49
2022-11-22T05:11:45.487Z,13.51
2022-11-22T05:14:12.452Z,13.49
2022-11-22T05:16:39.352Z,13.50
2022-11-22T05:19:06.316Z,13.48
2022-11-22T05:21:35.855Z,13.48
2022-11-22T05:24:03.398Z,13.49
2022-11-22T05:26:33.141Z,13.48
2022-11-22T05:29:04.858Z,13.46
2022-11-22T05:31:33.873Z,13.47
2022-11-22T05:34:00.846Z,13.47
2022-11-22T05:36:27.756Z,13.45
2022-11-22T05:38:55.202Z,13.47
2022-11-22T05:41:22.200Z,13.46
2022-11-22T05:43:49.179Z,13.45
2022-11-22T05:46:23.869Z,13.45
2022-11-22T05:48:51.392Z,13.44
2022-11-22T05:51:20.577Z,13.42
2022-11-22T05:53:47.940Z,13.40
2022-11-22T05:56:17.724Z,13.41
2022-11-22T05:58:45.179Z,13.39
2022-11-22T06:01:14.748Z,13.43
2022-11-22T06:03:42.132Z,13.44
2022-11-22T06:06:09.991Z,13.38
2022-11-22T06:08:39.029Z,13.41
2022-11-22T06:11:13.270Z,13.38
2022-11-22T06:13:44.401Z,13.39
2022-11-22T06:16:11.284Z,13.39
2022-11-22T06:18:38.601Z,13.37
2022-11-22T06:21:08.045Z,13.35
2022-11-22T06:23:35.336Z,13.38
2022-11-22T06:26:04.675Z,13.35
2022-11-22T06:28:32.978Z,13.38
2022-11-22T06:31:05.088Z,13.36
2022-11-22T06:33:32.132Z,13.34
2022-11-22T06:36:07.866Z,13.34
2022-11-22T06:38:35.212Z,13.35
2022-11-22T06:41:04.893Z,13.35
2022-11-22T06:43:34.031Z,13.34
2022-11-22T06:46:02.742Z,13.33
2022-11-22T06:48:31.491Z,13.33
2022-11-22T06:51:02.506Z,13.30
2022-11-22T06:53:46.870Z,13.32
2022-11-22T06:56:25.633Z,13.33
2022-11-22T06:58:53.229Z,13.32
2022-11-22T07:01:28.010Z,13.33
2022-11-22T07:03:58.710Z,13.35
2022-11-22T07:06:34.891Z,13.40
2022-11-22T07:09:03.248Z,13.52
2022-11-22T07:11:31.711Z,13.59
2022-11-22T07:14:05.367Z,13.60
2022-11-22T07:16:36.203Z,13.65
2022-11-22T07:19:03.716Z,13.57
2022-11-22T07:21:30.702Z,13.54
2022-11-22T07:23:57.552Z,13.51
2022-11-22T07:26:26.508Z,13.47
2022-11-22T07:28:53.523Z,13.49
2022-11-22T07:31:21.106Z,13.45
2022-11-22T07:33:48.413Z,13.48
2022-11-22T07:36:21.098Z,13.45
2022-11-22T07:38:49.561Z,13.47
2022-11-22T07:41:18.045Z,13.46
2022-11-22T07:43:46.283Z,13.46
2022-11-22T07:46:22.919Z,13.45
2022-11-22T07:48:50.162Z,13.46
2022-11-22T07:51:17.558Z,13.44
2022-11-22T07:53:44.676Z,13.40
2022-11-22T07:56:11.926Z,13.42
2022-11-22T07:58:39.212Z,13.44
2022-11-22T08:01:11.434Z,13.40
2022-11-22T08:03:38.778Z,13.41
2022-11-22T08:06:07.712Z,13.43
2022-11-22T08:08:36.194Z,13.40
2022-11-22T08:11:04.245Z,13.42
2022-11-22T08:13:32.276Z,13.42
2022-11-22T08:16:08.615Z,13.43
2022-11-22T08:18:36.765Z,13.45
2022-11-22T08:21:09.997Z,13.43
2022-11-22T08:23:37.561Z,13.43
2022-11-22T08:26:05.887Z,13.40
2022-11-22T08:28:33.233Z,13.43
2022-11-22T08:31:07.082Z,13.43
2022-11-22T08:33:34.105Z,13.40
2022-11-22T08:36:01.679Z,13.41
2022-11-22T08:38:28.839Z,13.46
2022-11-22T08:40:56.118Z,13.51
2022-11-22T08:43:23.645Z,13.57
2022-11-22T08:45:57.960Z,13.59
2022-11-22T08:48:26.103Z,13.54
2022-11-22T08:51:01.138Z,13.57
2022-11-22T08:53:30.096Z,13.58
2022-11-22T08:55:59.894Z,13.57
2022-11-22T08:58:31.910Z,13.53
2022-11-22T09:01:14.298Z,13.57
2022-11-22T09:03:42.135Z,13.59
2022-11-22T09:09:15.570Z,13.64
2022-11-22T09:11:46.003Z,13.67
2022-11-22T09:14:13.595Z,13.72
2022-11-22T09:16:40.553Z,13.74
2022-11-22T09:19:07.524Z,13.77
2022-11-22T09:21:34.611Z,13.80
2022-11-22T09:24:01.725Z,13.81
2022-11-22T09:26:29.736Z,13.84
2022-11-22T09:28:57.730Z,13.88
2022-11-22T09:31:25.384Z,13.87
2022-11-22T09:33:52.765Z,13.90
2022-11-22T09:36:22.481Z,13.97
2022-11-22T09:38:52.623Z,14.01
2022-11-22T09:41:41.084Z,14.04
2022-11-22T09:44:29.618Z,14.06
2022-11-22T09:47:09.083Z,14.11
2022-11-22T09:49:48.494Z,14.15
2022-11-22T09:52:41.487Z,14.19
2022-11-22T09:55:29.582Z,14.23
2022-11-22T09:58:24.534Z,14.29
2022-11-22T10:00:52.954Z,14.36
2022-11-22T10:03:30.176Z,14.42
2022-11-22T10:06:01.707Z,14.47
2022-11-22T10:08:52.386Z,14.48
2022-11-22T10:11:36.801Z,14.47
2022-11-22T10:14:13.911Z,14.44
2022-11-22T10:16:49.208Z,14.45
2022-11-22T10:19:24.002Z,14.52
2022-11-22T10:21:51.296Z,14.54
2022-11-22T10:24:20.067Z,14.54
2022-11-22T10:26:47.514Z,14.55
2022-11-22T10:29:40.326Z,14.61
2022-11-22T10:32:41.580Z,14.68
2022-11-22T10:35:27.404Z,14.75
2022-11-22T10:37:57.736Z,14.81
2022-11-22T10:40:33.877Z,14.82
2022-11-22T10:43:25.915Z,14.82
2022-11-22T10:46:35.384Z,14.86
2022-11-22T10:49:05.874Z,14.91
2022-11-22T10:51:51.871Z,14.94
2022-11-22T10:54:27.217Z,14.96
2022-11-22T10:57:18.707Z,14.97
2022-11-22T10:59:57.424Z,15.00
2022-11-22T11:02:47.381Z,15.01
2022-11-22T11:05:19.866Z,15.00
2022-11-22T11:07:56.732Z,15.01
2022-11-22T11:10:37.632Z,14.96
2022-11-22T11:13:15.227Z,14.87
2022-11-22T11:15:55.700Z,14.47
2022-11-22T11:18:31.370Z,14.49
2022-11-22T11:20:58.618Z,14.52
2022-11-22T11:23:25.714Z,14.52
2022-11-22T11:25:53.152Z,14.52
2022-11-22T11:28:27.014Z,14.53
2022-11-22T11:31:18.730Z,14.55
2022-11-22T11:33:46.921Z,14.55
2022-11-22T11:36:24.176Z,14.52
2022-11-22T11:38:57.303Z,14.55
2022-11-22T11:41:36.139Z,14.55
2022-11-22T11:44:06.397Z,14.57
2022-11-22T11:46:42.893Z,14.64
2022-11-22T11:49:16.111Z,14.61
2022-11-22T11:52:09.101Z,14.66
2022-11-22T11:54:39.855Z,14.69
2022-11-22T11:57:15.474Z,14.70
2022-11-22T11:59:45.905Z,14.73
2022-11-22T12:02:41.712Z,14.74
2022-11-22T12:05:14.845Z,14.77
2022-11-22T12:07:45.800Z,14.75
2022-11-22T12:10:36.808Z,14.78
2022-11-22T12:13:31.993Z,14.77
2022-11-22T12:16:29.761Z,14.81
2022-11-22T12:19:35.187Z,14.83
2022-11-22T12:22:05.622Z,14.80
2022-11-22T12:24:52.684Z,14.84
2022-11-22T12:27:28.780Z,14.85
2022-11-22T12:29:55.822Z,14.85
2022-11-22T12:32:30.886Z,14.86
2022-11-22T12:35:04.491Z,14.86
2022-11-22T12:37:31.523Z,14.91
2022-11-22T12:40:04.650Z,14.95
2022-11-22T12:42:46.881Z,14.98
2022-11-22T12:45:36.742Z,15.00
2022-11-22T12:48:17.326Z,15.01
2022-11-22T12:51:09.650Z,15.03
2022-11-22T12:53:42.204Z,15.03
2022-11-22T12:56:32.979Z,15.07
2022-11-22T12:59:19.747Z,15.16
2022-11-22T13:02:32.404Z,15.00
2022-11-22T13:05:15.920Z,14.84
2022-11-22T13:08:15.417Z,14.73
2022-11-22T13:10:53.832Z,14.75
2022-11-22T13:13:33.817Z,14.94
2022-11-22T13:16:03.267Z,15.00
2022-11-22T13:18:35.130Z,15.04
2022-11-22T13:21:11.197Z,15.04
2022-11-22T13:24:02.703Z,14.89
2022-11-22T13:26:54.369Z,15.01
2022-11-22T13:29:27.449Z,14.94
2022-11-22T13:32:01.474Z,15.08
2022-11-22T13:34:29.616Z,15.02
2022-11-22T13:37:07.033Z,15.01
2022-11-22T13:39:38.592Z,15.02
2022-11-22T13:42:07.521Z,15.01
2022-11-22T13:44:39.559Z,15.06
2022-11-22T13:47:24.568Z,15.14
2022-11-22T13:49:54.157Z,15.13
2022-11-22T13:52:21.083Z,15.11
2022-11-22T13:54:48.223Z,15.11
2022-11-22T13:57:30.523Z,15.10
2022-11-22T14:00:15.507Z,15.13
2022-11-22T14:02:51.427Z,15.14
2022-11-22T14:05:39.698Z,15.07
2022-11-22T14:08:35.636Z,15.14
2022-11-22T14:11:08.848Z,15.15
2022-11-22T14:13:52.777Z,15.17
2022-11-22T14:16:37.527Z,15.19
2022-11-22T14:19:19.349Z,15.16
2022-11-22T14:21:50.251Z,15.04
2022-11-22T14:24:35.751Z,15.14
2022-11-22T14:27:23.935Z,15.13
2022-11-22T14:30:23.090Z,15.16
2022-11-22T14:33:06.229Z,15.13
2022-11-22T14:35:37.930Z,15.15
2022-11-22T14:38:31.985Z,15.17
2022-11-22T14:41:27.059Z,15.19
2022-11-22T14:43:59.450Z,15.30
2022-11-22T14:46:52.349Z,15.35
2022-11-22T14:49:45.073Z,15.31
2022-11-22T14:52:24.919Z,15.43
2022-11-22T14:55:01.333Z,15.47
2022-11-22T14:57:33.014Z,15.49
2022-11-22T15:00:23.529Z,15.58
2022-11-22T15:03:15.095Z,15.64
2022-11-22T15:09:13.159Z,15.66
2022-11-22T15:09:46.577Z,15.90
2022-11-22T15:12:33.724Z,15.92
2022-11-22T15:58:13.236Z,16.39
2022-11-22T16:00:44.199Z,16.37
2022-11-22T16:03:27.260Z,16.33
2022-11-22T16:06:07.591Z,16.31
2022-11-22T16:08:38.890Z,16.36
2022-11-22T16:11:06.388Z,16.36
2022-11-22T16:13:36.590Z,16.36
2022-11-22T16:16:27.349Z,16.43
2022-11-22T16:19:14.189Z,16.52
2022-11-22T16:21:41.243Z,16.58
2022-11-22T16:24:12.951Z,16.61
2022-11-22T16:26:40.239Z,16.67
2022-11-22T16:29:38.156Z,16.62
2022-11-22T16:32:10.340Z,16.65
2022-11-22T16:34:38.166Z,16.67
2022-11-22T16:37:29.006Z,16.74
2022-11-22T16:39:59.026Z,16.74
2022-11-22T16:42:26.846Z,16.76
2022-11-22T16:44:53.998Z,16.78
2022-11-22T16:47:21.177Z,16.66
2022-11-22T16:49:49.638Z,16.67
2022-11-22T16:52:17.675Z,16.66
2022-11-22T16:54:45.140Z,16.53
2022-11-22T16:57:13.910Z,16.52
2022-11-22T16:59:41.196Z,16.59
2022-11-22T17:02:16.951Z,16.59
2022-11-22T17:04:46.177Z,16.57
2022-11-22T17:07:14.455Z,16.52
2022-11-22T17:09:41.880Z,16.47
2022-11-22T17:12:21.592Z,16.44
2022-11-22T17:14:49.603Z,16.35
2022-11-22T17:17:16.776Z,16.12
2022-11-22T17:19:53.284Z,15.99
2022-11-22T17:22:21.304Z,16.06
2022-11-22T17:24:48.376Z,15.93
2022-11-22T17:27:15.365Z,16.09
2022-11-22T17:29:51.159Z,15.99
2022-11-22T17:32:19.378Z,15.84
2022-11-22T17:34:46.400Z,15.73
2022-11-22T17:37:13.859Z,15.76
2022-11-22T17:39:41.599Z,15.83
2022-11-22T17:42:08.634Z,15.84
2022-11-22T17:44:35.751Z,15.66
2022-11-22T17:47:02.934Z,15.75
2022-11-22T17:49:31.117Z,15.99
2022-11-22T17:51:58.654Z,16.13
2022-11-22T17:54:25.721Z,16.21
2022-11-22T17:56:52.681Z,16.16
2022-11-22T17:59:19.698Z,16.20
2022-11-22T18:01:46.993Z,16.21
2022-11-22T18:04:15.065Z,16.30
2022-11-22T18:06:42.202Z,16.35
2022-11-22T18:09:09.785Z,16.39
2022-11-22T18:11:36.869Z,16.43
2022-11-22T18:14:04.005Z,16.63
2022-11-22T18:16:31.641Z,16.70
2022-11-22T18:18:59.455Z,16.79
2022-11-22T18:21:29.995Z,16.77
2022-11-22T18:23:58.922Z,16.86
2022-11-22T18:26:42.316Z,16.98
2022-11-22T18:29:41.579Z,17.03
2022-11-22T18:32:00.201Z,17.09
2022-11-22T18:34:28.274Z,17.13
2022-11-22T18:37:00.873Z,17.17
2022-11-22T18:39:35.519Z,17.22
2022-11-22T18:42:08.481Z,17.25
2022-11-22T18:44:37.028Z,17.29
2022-11-22T18:47:04.093Z,17.31
2022-11-22T18:49:31.859Z,17.25
2022-11-22T18:51:59.640Z,17.37
2022-11-22T18:54:27.244Z,17.39
2022-11-22T18:56:54.508Z,17.32
2022-11-22T18:59:21.532Z,17.41
2022-11-22T19:01:48.969Z,17.43
2022-11-22T19:04:16.633Z,17.43
2022-11-22T19:06:46.644Z,17.42
2022-11-22T19:09:16.988Z,17.42
2022-11-22T19:11:45.131Z,17.44
2022-11-22T19:14:12.902Z,17.39
2022-11-22T19:16:40.504Z,17.32
2022-11-22T19:19:11.427Z,17.22
2022-11-22T19:21:38.745Z,17.07
2022-11-22T19:24:07.798Z,16.99
2022-11-22T19:26:38.882Z,16.94
2022-11-22T19:29:06.983Z,16.94
2022-11-22T19:31:35.534Z,16.98
2022-11-22T19:34:05.113Z,16.94
2022-11-22T19:36:34.182Z,17.09
2022-11-22T19:39:04.768Z,17.10
2022-11-22T19:41:32.723Z,17.11
2022-11-22T19:44:01.963Z,17.19
2022-11-22T19:46:30.221Z,17.16
2022-11-22T19:49:01.825Z,17.29
2022-11-22T19:51:31.245Z,17.40
2022-11-22T19:54:02.460Z,17.45
2022-11-22T19:56:37.001Z,17.62
2022-11-22T19:59:07.883Z,17.71
2022-11-22T20:01:35.826Z,17.76
2022-11-22T20:04:06.259Z,17.69
2022-11-22T20:06:35.548Z,17.65
2022-11-22T20:09:10.282Z,17.65
2022-11-22T20:11:38.986Z,17.65
2022-11-22T20:14:06.322Z,17.62
2022-11-22T20:16:34.072Z,17.65
2022-11-22T20:19:03.451Z,17.56
2022-11-22T20:21:34.139Z,17.67
2022-11-22T20:24:02.542Z,17.85
2022-11-22T20:26:31.807Z,17.93
2022-11-22T20:29:05.347Z,17.99
2022-11-22T20:31:34.628Z,17.99
2022-11-22T20:34:02.716Z,18.10
2022-11-22T20:36:34.250Z,18.13
2022-11-22T20:39:05.599Z,18.18
2022-11-22T20:41:36.855Z,18.23
2022-11-22T20:44:04.485Z,18.16
2022-11-22T20:46:31.760Z,18.26
2022-11-22T20:48:59.010Z,18.26
2022-11-22T20:51:28.139Z,18.29
2022-11-22T20:53:56.170Z,18.23
2022-11-22T20:56:23.412Z,18.30
2022-11-22T20:58:50.839Z,18.30
2022-11-22T21:01:23.254Z,18.32
2022-11-22T21:03:51.367Z,18.29
2022-11-22T21:06:20.583Z,18.16
2022-11-22T21:08:51.027Z,18.15
2022-11-22T21:11:23.331Z,18.12
2022-11-22T21:13:52.084Z,18.09
2022-11-22T21:16:25.224Z,18.02
2022-11-22T21:18:57.586Z,17.88
2022-11-22T21:21:25.924Z,17.68
2022-11-22T21:23:56.733Z,17.59
2022-11-22T21:26:25.398Z,17.58
2022-11-22T21:28:53.298Z,17.46
2022-11-22T21:31:21.389Z,17.39
2022-11-22T21:33:48.612Z,17.32
2022-11-22T21:36:16.434Z,17.26
2022-11-22T21:38:43.862Z,17.13
2022-11-22T21:44:04.063Z,17.09
2022-11-22T21:46:31.434Z,17.05
2022-11-22T21:48:58.476Z,17.01
2022-11-22T21:51:28.046Z,16.96
2022-11-22T21:54:02.365Z,16.92
2022-11-22T21:56:30.841Z,16.84
2022-11-22T21:58:58.031Z,16.70
2022-11-22T22:01:25.981Z,16.64
2022-11-22T22:03:53.722Z,16.66
2022-11-22T22:06:21.203Z,16.63
2022-11-22T22:08:48.759Z,16.57
2022-11-22T22:11:16.317Z,16.49
2022-11-22T22:13:43.966Z,16.44
2022-11-22T22:16:19.471Z,16.39
2022-11-22T22:18:47.638Z,16.34
2022-11-22T22:21:15.212Z,16.20
2022-11-22T22:23:43.408Z,16.24
2022-11-22T22:26:16.351Z,16.19
2022-11-22T22:28:45.533Z,16.14
2022-11-22T22:31:22.013Z,16.09
2022-11-22T22:33:54.792Z,15.96
2022-11-22T22:36:23.435Z,15.98
2022-11-22T22:38:51.375Z,15.96
2022-11-22T22:41:18.514Z,15.82
2022-11-22T22:43:48.324Z,15.86
2022-11-22T22:46:20.742Z,15.82
2022-11-22T22:48:48.841Z,15.78
2022-11-22T22:51:30.673Z,15.74
2022-11-22T22:54:01.993Z,15.69
2022-11-22T22:56:30.755Z,15.65
2022-11-22T22:59:01.308Z,15.60
2022-11-22T23:01:30.864Z,15.55
2022-11-22T23:04:00.435Z,15.53
2022-11-22T23:06:30.704Z,15.49
2022-11-22T23:08:58.448Z,15.47
2022-11-22T23:11:47.810Z,15.42
2022-11-22T23:14:17.686Z,15.39
2022-11-22T23:16:44.708Z,15.36
2022-11-22T23:19:12.007Z,15.31
2022-11-22T23:21:39.527Z,15.29
2022-11-22T23:24:07.282Z,15.25
2022-11-22T23:26:34.351Z,15.22
2022-11-22T23:29:01.575Z,15.19
2022-11-22T23:31:29.001Z,15.17
2022-11-22T23:33:56.012Z,15.14
2022-11-22T23:36:23.556Z,15.08
2022-11-22T23:38:50.547Z,14.94
2022-11-22T23:41:22.914Z,14.96
2022-11-22T23:43:55.079Z,14.92
2022-11-22T23:46:26.418Z,14.82
2022-11-22T23:48:57.907Z,14.87
2022-11-22T23:51:26.167Z,14.81
2022-11-22T23:53:58.286Z,14.80
2022-11-22T23:56:25.993Z,14.75
2022-11-22T23:58:53.313Z,14.73
